createdAt,value
2022-10-21T00:01:08.666Z,18854.69
2022-10-21T00:03:37.272Z,18901.41
2022-10-21T00:06:06.211Z,18899.38
2022-10-21T00:08:34.738Z,18931.91
2022-10-21T00:11:07.590Z,19015.19
2022-10-21T00:13:39.713Z,19017.25
2022-10-21T00:16:11.416Z,18929.88
2022-10-21T00:18:42.020Z,18929.88
2022-10-21T00:21:13.681Z,18907.50
2022-10-21T00:23:42.295Z,18913.59
2022-10-21T00:26:14.071Z,18919.69
2022-10-21T00:28:42.554Z,18897.34
2022-10-21T00:31:12.798Z,18895.31
2022-10-21T00:33:41.415Z,18901.41
2022-10-21T00:36:14.817Z,18883.13
2022-10-21T00:38:45.072Z,18883.13
2022-10-21T00:41:17.445Z,18921.75
2022-10-21T00:44:02.127Z,18927.84
2022-10-21T00:46:39.245Z,18919.69
2022-10-21T00:49:17.962Z,18940.03
2022-10-21T00:51:50.788Z,18905.47
2022-10-21T00:54:21.742Z,18921.75
2022-10-21T00:56:55.790Z,18913.59
2022-10-21T00:59:27.646Z,18923.78
2022-10-21T01:01:56.160Z,18942.06
2022-10-21T01:04:24.759Z,18944.09
2022-10-21T01:06:53.496Z,18942.06
2022-10-21T01:09:22.820Z,18933.94
2022-10-21T01:11:52.440Z,18915.63
2022-10-21T01:14:46.356Z,18917.66
2022-10-21T01:17:46.717Z,18862.81
2022-10-21T01:20:47.646Z,18899.38
2022-10-21T01:23:58.250Z,18836.41
2022-10-21T01:27:10.840Z,18856.72
2022-10-21T01:30:12.411Z,18789.66
2022-10-21T01:33:21.915Z,18836.41
2022-10-21T01:35:57.050Z,18822.19
2022-10-21T01:38:35.740Z,18797.78
2022-10-21T01:41:14.460Z,18824.22
2022-10-21T01:43:56.105Z,18858.75
2022-10-21T01:46:31.487Z,18895.31
2022-10-21T01:49:08.978Z,18875.00
2022-10-21T01:51:38.925Z,18881.09
2022-10-21T01:54:11.480Z,18860.78
2022-10-21T01:56:43.249Z,18870.94
2022-10-21T01:59:14.125Z,18856.72
2022-10-21T02:01:44.930Z,18866.88
2022-10-21T02:04:17.086Z,18868.91
2022-10-21T02:06:45.531Z,18862.81
2022-10-21T02:09:13.843Z,18913.59
2022-10-21T02:11:46.878Z,18931.91
2022-10-21T02:14:21.838Z,18925.81
2022-10-21T02:16:53.497Z,18875.00
2022-10-21T02:19:23.088Z,18866.88
2022-10-21T02:21:55.531Z,18877.03
2022-10-21T02:24:37.616Z,18960.34
2022-10-21T02:27:06.357Z,18899.38
2022-10-21T02:29:39.260Z,18883.13
2022-10-21T02:32:26.855Z,18840.47
2022-10-21T02:35:16.134Z,18866.88
2022-10-21T02:37:53.367Z,18820.16
2022-10-21T02:40:27.284Z,18830.31
2022-10-21T02:43:00.560Z,18842.50
2022-10-21T02:45:28.671Z,18820.16
2022-10-21T02:47:57.195Z,18809.97
2022-10-21T02:50:26.628Z,18828.28
2022-10-21T02:52:54.605Z,18838.44
2022-10-21T02:55:22.600Z,18755.13
2022-10-21T02:57:50.724Z,18805.91
2022-10-21T03:00:18.910Z,18757.16
2022-10-21T03:02:46.930Z,18822.19
2022-10-21T03:05:15.175Z,18789.66
2022-10-21T03:07:44.633Z,18807.94
2022-10-21T03:10:12.590Z,18870.94
2022-10-21T03:12:40.577Z,18783.56
2022-10-21T03:15:09.884Z,18822.19
2022-10-21T03:17:38.191Z,18828.28
2022-10-21T03:20:07.529Z,18824.22
2022-10-21T03:22:35.558Z,18805.91
2022-10-21T03:25:06.698Z,18785.59
2022-10-21T03:27:34.765Z,18820.16
2022-10-21T03:30:03.202Z,18765.28
2022-10-21T03:32:31.210Z,18775.44
2022-10-21T03:34:59.203Z,18759.19
2022-10-21T03:37:27.333Z,18755.13
2022-10-21T03:39:55.322Z,18751.06
2022-10-21T03:42:24.594Z,18734.81
2022-10-21T03:44:52.600Z,18769.34
2022-10-21T03:47:20.584Z,18787.63
2022-10-21T03:49:48.600Z,18793.72
2022-10-21T03:52:16.751Z,18749.03
2022-10-21T03:54:44.905Z,18716.53
2022-10-21T03:57:12.870Z,18734.81
2022-10-21T03:59:42.197Z,18753.09
2022-10-21T04:02:10.140Z,18681.97
2022-10-21T04:04:38.628Z,18708.41
2022-10-21T04:07:06.593Z,18712.47
2022-10-21T04:09:34.618Z,18718.56
2022-10-21T04:12:02.634Z,18720.59
2022-10-21T04:14:30.614Z,18712.47
2022-10-21T04:17:06.942Z,18716.53
2022-10-21T04:19:35.563Z,18700.25
2022-10-21T04:22:03.584Z,18688.06
2022-10-21T04:24:31.587Z,18698.22
2022-10-21T04:26:59.631Z,18706.38
2022-10-21T04:29:27.733Z,18706.38
2022-10-21T04:34:30.640Z,18732.78
2022-10-21T04:37:01.155Z,18716.53
2022-10-21T04:39:32.256Z,18714.50
2022-10-21T04:42:00.465Z,18722.63
2022-10-21T04:44:28.450Z,18716.53
2022-10-21T04:46:56.534Z,18749.03
2022-10-21T04:49:24.509Z,18740.91
2022-10-21T04:51:53.850Z,18734.81
2022-10-21T04:54:21.820Z,18775.44
2022-10-21T04:56:49.824Z,18771.38
2022-10-21T04:59:17.828Z,18781.53
2022-10-21T05:01:45.832Z,18818.09
2022-10-21T05:04:13.987Z,18820.16
2022-10-21T05:06:41.990Z,18814.03
2022-10-21T05:09:11.403Z,18875.00
2022-10-21T05:11:39.448Z,18850.63
2022-10-21T05:14:07.428Z,18797.78
2022-10-21T05:16:35.600Z,18734.81
2022-10-21T05:19:03.605Z,18708.41
2022-10-21T05:21:31.637Z,18686.03
2022-10-21T05:23:59.576Z,18625.09
2022-10-21T05:26:30.881Z,18594.63
2022-10-21T05:28:58.930Z,18578.38
2022-10-21T05:31:27.725Z,18582.44
2022-10-21T05:33:55.671Z,18570.22
2022-10-21T05:36:24.250Z,18596.66
2022-10-21T05:38:52.828Z,18558.03
2022-10-21T05:41:21.529Z,18612.91
2022-10-21T05:43:50.843Z,18631.19
2022-10-21T05:46:18.880Z,18635.25
2022-10-21T05:51:25.381Z,18663.69
2022-10-21T05:53:53.718Z,18635.25
2022-10-21T05:56:22.203Z,18625.09
2022-10-21T05:58:52.031Z,18736.84
2022-10-21T06:01:20.067Z,18677.91
2022-10-21T06:03:48.131Z,18673.84
2022-10-21T06:06:16.165Z,18734.81
2022-10-21T06:08:44.353Z,18767.31
2022-10-21T06:11:15.432Z,18846.56
2022-10-21T06:13:44.218Z,18826.25
2022-10-21T06:16:15.445Z,18911.56
2022-10-21T06:18:44.351Z,18899.38
2022-10-21T06:21:12.453Z,18944.09
2022-10-21T06:23:40.405Z,18938.00
2022-10-21T06:26:12.762Z,18842.50
2022-10-21T06:28:44.721Z,18862.81
2022-10-21T06:31:17.193Z,18868.91
2022-10-21T06:33:45.524Z,18828.28
2022-10-21T06:36:13.658Z,18893.28
2022-10-21T06:38:41.960Z,18907.50
2022-10-21T06:41:13.743Z,18907.50
2022-10-21T06:43:42.599Z,18984.72
2022-10-21T06:46:15.258Z,19033.50
2022-10-21T06:48:43.503Z,19035.53
2022-10-21T06:51:16.876Z,19015.19
2022-10-21T06:53:45.878Z,19129.00
2022-10-21T06:56:17.352Z,19147.28
2022-10-21T06:58:48.011Z,19098.50
2022-10-21T07:01:34.405Z,19039.59
2022-10-21T07:04:09.310Z,19035.53
2022-10-21T07:06:38.027Z,19045.69
2022-10-21T07:09:08.308Z,19068.03
2022-10-21T07:11:36.984Z,19041.63
2022-10-21T07:14:05.646Z,19015.19
2022-10-21T07:16:38.610Z,19063.97
2022-10-21T07:19:07.923Z,19009.09
2022-10-21T07:21:35.892Z,18984.72
2022-10-21T07:24:03.970Z,19033.50
2022-10-21T07:26:34.753Z,19072.09
2022-10-21T07:29:03.111Z,19009.09
2022-10-21T07:31:37.846Z,19033.50
2022-10-21T07:34:08.810Z,19082.25
2022-10-21T07:36:40.232Z,19057.88
2022-10-21T07:39:12.268Z,19037.56
2022-10-21T07:41:43.591Z,19019.28
2022-10-21T07:44:12.456Z,19041.63
2022-10-21T07:46:44.698Z,19053.81
2022-10-21T07:49:14.745Z,19078.19
2022-10-21T07:51:45.087Z,19094.44
2022-10-21T07:54:14.179Z,19074.13
2022-10-21T07:56:45.061Z,19033.50
2022-10-21T07:59:14.769Z,19025.38
2022-10-21T08:01:45.777Z,19029.44
2022-10-21T08:04:16.723Z,19005.03
2022-10-21T08:06:45.943Z,18982.69
2022-10-21T08:09:15.151Z,19041.63
2022-10-21T08:11:43.690Z,19011.13
2022-10-21T08:14:12.973Z,19000.97
2022-10-21T08:16:43.340Z,19037.56
2022-10-21T08:19:20.264Z,19055.84
2022-10-21T08:21:48.693Z,19076.16
2022-10-21T08:24:17.299Z,19126.97
2022-10-21T08:26:45.292Z,19208.25
2022-10-21T08:29:13.353Z,19220.44
2022-10-21T08:31:42.706Z,19165.56
2022-10-21T08:34:10.895Z,19248.88
2022-10-21T08:36:40.013Z,19200.13
2022-10-21T08:39:08.521Z,19238.72
2022-10-21T08:42:03.438Z,19210.28
2022-10-21T08:44:41.447Z,19208.25
2022-10-21T08:47:22.012Z,19257.00
2022-10-21T08:50:01.573Z,19311.88
2022-10-21T08:52:40.259Z,19301.72
2022-10-21T08:55:17.417Z,19322.03
2022-10-21T08:57:45.628Z,19342.34
2022-10-21T09:00:20.152Z,19326.09
2022-10-21T09:03:08.653Z,19342.34
2022-10-21T09:06:02.577Z,19372.84
2022-10-21T09:08:42.567Z,19366.75
2022-10-21T09:11:26.833Z,19346.44
2022-10-21T09:14:38.097Z,19415.50
2022-10-21T09:17:25.109Z,19452.09
2022-10-21T09:20:10.796Z,19435.84
2022-10-21T09:22:53.913Z,19521.19
2022-10-21T09:25:32.429Z,19547.59
2022-10-21T09:28:10.039Z,19580.13
2022-10-21T09:30:39.506Z,19574.03
2022-10-21T09:33:19.232Z,19537.44
2022-10-21T09:35:54.673Z,19630.94
2022-10-21T09:38:30.097Z,19700.03
2022-10-21T09:41:03.295Z,19748.81
2022-10-21T09:43:32.087Z,19830.09
2022-10-21T09:46:00.337Z,20037.41
2022-10-21T09:48:55.096Z,20212.19
2022-10-21T09:51:33.504Z,20387.00
2022-10-21T09:54:10.843Z,20376.84
2022-10-21T09:56:46.260Z,20305.69
2022-10-21T09:59:18.808Z,20295.53
2022-10-21T10:01:49.014Z,20179.69
2022-10-21T10:04:26.813Z,20143.09
2022-10-21T10:06:56.385Z,20078.06
2022-10-21T10:09:30.059Z,20053.66
2022-10-21T10:12:02.752Z,20021.16
2022-10-21T10:14:35.171Z,20013.00
2022-10-21T10:17:33.618Z,20035.38
2022-10-21T10:20:20.720Z,20088.22
2022-10-21T10:23:17.556Z,20069.94
2022-10-21T10:25:52.641Z,20021.16
2022-10-21T10:28:26.581Z,20067.88
2022-10-21T10:30:57.768Z,20065.84
2022-10-21T10:33:31.057Z,20029.28
2022-10-21T10:36:05.218Z,20059.75
2022-10-21T10:38:41.748Z,20049.59
2022-10-21T10:41:13.267Z,20039.44
2022-10-21T10:43:48.229Z,20106.50
2022-10-21T10:46:26.806Z,20041.47
2022-10-21T10:48:58.769Z,20051.63
2022-10-21T10:51:30.247Z,20116.66
2022-10-21T10:54:16.387Z,20071.97
2022-10-21T10:56:52.637Z,20114.63
2022-10-21T10:59:33.432Z,20114.63
2022-10-21T11:02:27.066Z,20090.25
2022-10-21T11:05:17.657Z,20200.00
2022-10-21T11:07:50.747Z,20252.84
2022-10-21T11:10:33.932Z,20273.19
2022-10-21T11:13:05.305Z,20401.22
2022-10-21T11:15:56.273Z,20338.22
2022-10-21T11:18:34.385Z,20342.28
2022-10-21T11:21:27.647Z,20303.66
2022-10-21T11:24:24.190Z,20283.34
2022-10-21T11:27:00.887Z,20238.63
2022-10-21T11:29:52.214Z,20246.75
2022-10-21T11:32:31.804Z,20238.63
2022-10-21T11:35:15.668Z,20206.09
2022-10-21T11:38:02.852Z,20285.38
2022-10-21T11:40:41.083Z,20281.31
2022-10-21T11:43:32.948Z,20260.97
2022-10-21T11:46:12.642Z,20326.03
2022-10-21T11:49:17.439Z,20299.59
2022-10-21T11:51:55.922Z,20226.44
2022-10-21T11:55:24.374Z,20139.03
2022-10-21T11:58:08.077Z,20098.38
2022-10-21T12:00:49.999Z,20139.03
2022-10-21T12:03:44.733Z,20031.31
2022-10-21T12:06:32.052Z,19996.75
2022-10-21T12:09:05.474Z,20000.81
2022-10-21T12:11:42.428Z,19974.41
2022-10-21T12:14:31.350Z,19929.69
2022-10-21T12:17:07.996Z,19874.81
2022-10-21T12:19:37.650Z,19834.16
2022-10-21T12:22:06.344Z,19866.69
2022-10-21T12:24:48.842Z,19785.38
2022-10-21T12:27:28.295Z,19679.72
2022-10-21T12:30:14.247Z,19549.63
2022-10-21T12:32:56.720Z,19309.84
2022-10-21T12:38:45.388Z,19118.84
2022-10-21T12:41:30.654Z,19094.44
2022-10-21T12:44:13.644Z,19043.66
2022-10-21T12:46:44.671Z,19068.03
2022-10-21T12:49:32.618Z,18968.47
2022-10-21T12:52:12.449Z,18958.31
2022-10-21T12:54:56.857Z,18940.03
2022-10-21T12:57:29.966Z,18883.13
2022-10-21T13:00:51.413Z,18870.94
2022-10-21T13:03:22.990Z,18887.19
2022-10-21T13:06:06.943Z,18840.47
2022-10-21T13:08:54.712Z,18822.19
2022-10-21T13:11:38.648Z,18844.53
2022-10-21T13:14:44.459Z,18791.69
2022-10-21T13:17:28.885Z,18734.81
2022-10-21T13:20:18.079Z,18730.75
2022-10-21T13:22:49.893Z,18724.66
2022-10-21T13:25:26.332Z,18692.13
2022-10-21T13:28:05.055Z,18667.75
2022-10-21T13:30:36.639Z,18639.31
2022-10-21T13:33:07.462Z,18621.03
2022-10-21T13:35:44.371Z,18594.63
2022-10-21T13:38:25.195Z,18602.75
2022-10-21T13:40:57.475Z,18553.97
2022-10-21T13:43:29.529Z,18582.44
2022-10-21T13:46:07.893Z,18484.91
2022-10-21T13:48:41.016Z,18499.13
2022-10-21T13:51:18.919Z,18509.28
2022-10-21T13:53:49.841Z,18488.97
2022-10-21T13:56:24.091Z,18411.75
2022-10-21T13:58:53.297Z,18430.06
2022-10-21T14:01:25.375Z,18381.28
2022-10-21T14:03:54.688Z,18375.19
2022-10-21T14:06:31.276Z,18403.63
2022-10-21T14:09:04.056Z,18413.78
2022-10-21T14:11:37.582Z,18387.38
2022-10-21T14:14:10.747Z,18411.75
2022-10-21T14:16:41.985Z,18428.03
2022-10-21T14:19:19.750Z,18436.16
2022-10-21T14:21:53.559Z,18460.53
2022-10-21T14:24:35.907Z,18411.75
2022-10-21T14:27:05.078Z,18434.13
2022-10-21T14:29:36.959Z,18403.63
2022-10-21T14:32:06.700Z,18430.06
2022-10-21T14:34:37.169Z,18407.69
2022-10-21T14:37:20.105Z,18403.63
2022-10-21T14:39:49.393Z,18358.94
2022-10-21T14:42:21.658Z,18377.22
2022-10-21T14:44:56.003Z,18332.53
2022-10-21T14:47:27.611Z,18344.72
2022-10-21T14:49:59.674Z,18322.38
2022-10-21T14:52:36.762Z,18326.44
2022-10-21T14:55:10.816Z,18354.88
2022-10-21T14:57:57.381Z,18298.00
2022-10-21T15:00:30.406Z,18277.69
2022-10-21T15:03:00.263Z,18267.53
2022-10-21T15:05:35.653Z,18308.16
2022-10-21T15:08:31.986Z,18277.69
2022-10-21T15:11:24.293Z,18285.81
2022-10-21T15:14:06.535Z,18265.50
2022-10-21T15:19:16.544Z,18243.16
2022-10-21T15:21:51.546Z,18243.16
2022-10-21T15:24:24.299Z,18208.59
2022-10-21T15:26:55.338Z,18196.41
2022-10-21T15:29:33.733Z,18212.66
2022-10-21T15:32:02.634Z,18220.78
2022-10-21T15:34:30.817Z,18178.13
2022-10-21T15:36:58.935Z,18172.03
2022-10-21T15:39:26.909Z,18186.25
2022-10-21T15:41:58.451Z,18139.53
2022-10-21T15:44:30.036Z,18161.88
2022-10-21T15:47:02.503Z,18155.78
2022-10-21T15:49:34.890Z,18105.00
2022-10-21T15:52:02.884Z,18165.94
2022-10-21T15:54:31.053Z,18153.75
2022-10-21T15:57:02.373Z,18135.47
2022-10-21T15:59:33.292Z,18141.56
2022-10-21T16:02:02.227Z,18135.47
2022-10-21T16:04:30.286Z,18119.22
2022-10-21T16:06:58.359Z,18109.06
2022-10-21T16:09:30.347Z,18119.22
2022-10-21T16:12:01.588Z,18088.75
2022-10-21T16:14:31.238Z,18058.28
2022-10-21T16:17:00.187Z,18090.78
2022-10-21T16:19:28.989Z,18090.78
2022-10-21T16:21:57.790Z,18072.50
2022-10-21T16:24:25.871Z,18074.53
2022-10-21T16:26:53.927Z,18062.34
2022-10-21T16:29:26.006Z,18062.34
2022-10-21T16:31:54.227Z,18066.41
2022-10-21T16:34:22.211Z,18074.53
2022-10-21T16:36:50.126Z,18042.03
2022-10-21T16:39:20.040Z,18107.03
2022-10-21T16:41:47.953Z,18068.44
2022-10-21T16:44:16.540Z,17993.28
2022-10-21T16:46:52.528Z,18054.22
2022-10-21T16:49:25.254Z,17960.78
2022-10-21T16:51:54.661Z,17972.97
2022-10-21T16:54:24.606Z,17950.63
2022-10-21T16:56:55.105Z,17989.22
2022-10-21T16:59:24.212Z,17970.94
2022-10-21T17:01:53.504Z,17944.53
2022-10-21T17:04:21.405Z,17964.84
2022-10-21T17:06:49.473Z,17970.94
2022-10-21T17:09:17.463Z,17940.47
2022-10-21T17:11:45.393Z,17916.06
2022-10-21T17:14:19.837Z,17922.16
2022-10-21T17:16:48.438Z,17914.03
2022-10-21T17:19:17.780Z,17918.09
2022-10-21T17:21:45.763Z,17920.13
2022-10-21T17:24:18.556Z,17873.41
2022-10-21T17:26:47.034Z,17859.19
2022-10-21T17:29:15.585Z,17842.94
2022-10-21T17:31:44.771Z,17840.91
2022-10-21T17:34:28.093Z,17798.25
2022-10-21T17:36:56.292Z,17794.19
2022-10-21T17:39:24.524Z,17771.84
2022-10-21T17:41:52.720Z,17729.19
2022-10-21T17:44:20.771Z,17739.34
2022-10-21T17:46:51.811Z,17751.53
2022-10-21T17:49:19.820Z,17749.50
2022-10-21T17:51:50.127Z,17721.06
2022-10-21T17:54:20.508Z,17743.41
2022-10-21T17:56:51.966Z,17570.75
2022-10-21T17:59:20.119Z,17570.75
2022-10-21T18:01:48.135Z,17591.06
2022-10-21T18:04:16.140Z,17576.84
2022-10-21T18:06:44.167Z,17562.63
2022-10-21T18:09:13.704Z,17595.13
2022-10-21T18:11:41.766Z,17574.81
2022-10-21T18:14:09.806Z,17574.81
2022-10-21T18:16:37.826Z,17589.03
2022-10-21T18:19:05.917Z,17566.69
2022-10-21T18:21:33.931Z,17530.13
2022-10-21T18:24:01.942Z,17546.38
2022-10-21T18:26:32.551Z,17532.16
2022-10-21T18:29:03.911Z,17501.69
2022-10-21T18:31:35.693Z,17461.09
2022-10-21T18:34:05.641Z,17452.97
2022-10-21T18:36:34.369Z,17446.88
2022-10-21T18:39:02.507Z,17461.09
2022-10-21T18:41:32.109Z,17426.56
2022-10-21T18:44:04.606Z,17463.09
2022-10-21T18:46:33.345Z,17414.38
2022-10-21T18:49:05.019Z,17461.09
2022-10-21T18:51:33.174Z,17444.84
2022-10-21T18:54:01.380Z,17416.41
2022-10-21T18:56:30.840Z,17452.97
2022-10-21T18:58:59.094Z,17385.94
2022-10-21T19:01:27.591Z,17416.41
2022-10-21T19:03:56.343Z,17426.56
2022-10-21T19:06:39.819Z,17408.28
2022-10-21T19:09:13.833Z,17377.81
2022-10-21T19:11:44.301Z,17412.34
2022-10-21T19:14:14.406Z,17341.25
2022-10-21T19:16:43.989Z,17365.63
2022-10-21T19:19:12.669Z,17333.13
2022-10-21T19:21:41.118Z,17365.63
2022-10-21T19:24:10.331Z,17260.00
2022-10-21T19:26:42.389Z,17213.28
2022-10-21T19:29:14.090Z,17235.63
2022-10-21T19:31:43.698Z,17243.75
2022-10-21T19:34:13.823Z,17235.63
2022-10-21T19:36:42.158Z,17233.59
2022-10-21T19:39:10.483Z,17197.03
2022-10-21T19:41:38.855Z,17195.00
2022-10-21T19:44:09.129Z,17207.19
2022-10-21T19:46:37.572Z,17168.59
2022-10-21T19:49:07.640Z,17262.03
2022-10-21T19:51:36.837Z,17219.38
2022-10-21T19:54:06.496Z,17201.09
2022-10-21T19:56:35.567Z,16677.16
2022-10-21T19:59:05.031Z,16644.66
2022-10-21T20:01:35.432Z,16664.97
2022-10-21T20:04:05.327Z,16599.97
2022-10-21T20:06:36.467Z,16616.22
2022-10-21T20:09:08.525Z,16608.09
2022-10-21T20:11:37.185Z,16610.13
2022-10-21T20:14:06.353Z,16604.03
2022-10-21T20:16:39.252Z,16630.44
2022-10-21T20:19:08.045Z,16591.84
2022-10-21T20:21:37.310Z,16624.34
2022-10-21T20:24:06.538Z,16612.16
2022-10-21T20:26:34.807Z,17103.63
2022-10-21T20:29:03.096Z,17115.81
2022-10-21T20:31:32.083Z,17071.13
2022-10-21T20:34:01.471Z,17130.03
2022-10-21T20:36:32.419Z,16569.50
2022-10-21T20:39:02.944Z,16612.16
2022-10-21T20:41:34.707Z,16559.38
2022-10-21T20:44:04.791Z,16555.31
2022-10-21T20:46:35.306Z,16547.19
2022-10-21T20:49:06.777Z,16543.13
2022-10-21T20:51:36.990Z,16535.00
2022-10-21T20:54:08.038Z,16512.66
2022-10-21T20:56:39.596Z,16090.31
2022-10-21T20:59:11.047Z,16023.31
2022-10-21T21:01:42.423Z,15958.34
2022-10-21T21:04:15.102Z,15875.09
2022-10-21T21:06:46.427Z,15842.59
2022-10-21T21:12:05.051Z,15804.03
2022-10-21T21:14:33.382Z,15718.75
2022-10-21T21:17:01.386Z,15688.31
2022-10-21T21:19:30.780Z,15682.22
2022-10-21T21:21:58.971Z,15629.44
2022-10-21T21:24:27.186Z,15570.56
2022-10-21T21:26:55.185Z,15574.63
2022-10-21T21:29:24.000Z,15521.84
2022-10-21T21:31:51.991Z,15509.66
2022-10-21T21:34:20.006Z,15568.53
2022-10-21T21:36:49.345Z,15970.50
2022-10-21T21:39:18.049Z,15966.47
2022-10-21T21:41:46.531Z,15974.56
2022-10-21T21:44:14.569Z,15982.69
2022-10-21T21:46:42.592Z,15968.50
2022-10-21T21:49:10.598Z,15966.47
2022-10-21T21:51:38.680Z,15954.28
2022-10-21T21:54:08.591Z,15962.41
2022-10-21T21:56:37.047Z,15974.56
2022-10-21T21:59:05.444Z,15944.13
2022-10-21T22:01:33.563Z,15946.16
2022-10-21T22:04:02.278Z,15929.91
2022-10-21T22:06:33.256Z,15933.97
2022-10-21T22:09:02.673Z,15970.50
2022-10-21T22:11:33.544Z,15970.50
2022-10-21T22:14:01.706Z,15929.91
2022-10-21T22:16:30.960Z,15982.69
2022-10-21T22:19:01.524Z,15958.34
2022-10-21T22:21:31.955Z,15931.94
2022-10-21T22:24:00.342Z,15988.78
2022-10-21T22:26:29.738Z,15958.34
2022-10-21T22:28:59.068Z,15978.63
2022-10-21T22:31:30.276Z,15982.69
2022-10-21T22:34:00.535Z,15976.59
2022-10-21T22:36:28.743Z,16003.00
2022-10-21T22:38:56.776Z,16000.97
2022-10-21T22:41:24.827Z,16000.97
2022-10-21T22:43:52.884Z,16027.38
2022-10-21T22:46:33.504Z,16019.25
2022-10-21T22:49:03.062Z,16009.09
2022-10-21T22:51:31.063Z,15968.50
2022-10-21T22:53:59.078Z,15988.78
2022-10-21T22:56:28.570Z,15986.75
2022-10-21T22:58:57.756Z,15596.94
2022-10-21T23:01:30.250Z,15590.84
2022-10-21T23:04:02.472Z,15596.94
2022-10-21T23:06:31.188Z,15558.38
2022-10-21T23:08:59.852Z,15564.47
2022-10-21T23:11:27.991Z,15548.22
2022-10-21T23:14:02.754Z,15560.41
2022-10-21T23:16:33.500Z,15566.50
2022-10-21T23:19:01.544Z,15517.78
2022-10-21T23:21:29.650Z,15536.03
2022-10-21T23:23:57.936Z,15410.19
2022-10-21T23:26:26.429Z,15462.97
2022-10-21T23:28:54.528Z,15454.84
2022-10-21T23:31:22.681Z,15426.41
2022-10-21T23:33:52.040Z,15385.81
2022-10-21T23:36:20.359Z,15385.81
2022-10-21T23:38:48.421Z,15418.31
2022-10-21T23:41:16.398Z,15438.59
2022-10-21T23:43:44.378Z,15440.63
2022-10-21T23:46:12.357Z,15408.16
2022-10-21T23:48:40.404Z,15406.13
2022-10-21T23:51:09.713Z,15450.78
2022-10-21T23:53:38.217Z,15444.69
2022-10-21T23:56:07.410Z,15465.00
2022-10-21T23:58:35.415Z,15434.53
